createdAt,value
2023-04-27T00:01:45.539Z,21.47
2023-04-27T00:04:15.083Z,21.45
2023-04-27T00:06:42.977Z,21.44
2023-04-27T00:09:09.798Z,21.42
2023-04-27T00:11:36.652Z,21.36
2023-04-27T00:14:03.838Z,21.35
2023-04-27T00:16:30.814Z,21.35
2023-04-27T00:18:57.697Z,21.32
2023-04-27T00:21:24.471Z,21.28
2023-04-27T00:23:51.295Z,21.26
2023-04-27T00:26:18.116Z,21.25
2023-04-27T00:28:45.083Z,21.23
2023-04-27T00:31:12.058Z,21.19
2023-04-27T00:33:38.847Z,21.18
2023-04-27T00:36:06.036Z,21.16
2023-04-27T00:38:32.812Z,21.15
2023-04-27T00:41:01.409Z,21.14
2023-04-27T00:43:28.155Z,21.10
2023-04-27T00:45:55.015Z,21.09
2023-04-27T00:48:21.973Z,21.07
2023-04-27T00:50:48.913Z,21.05
2023-04-27T00:53:15.974Z,21.04
2023-04-27T00:55:42.720Z,21.03
2023-04-27T00:58:12.582Z,21.02
2023-04-27T01:00:40.381Z,20.99
2023-04-27T01:03:08.407Z,20.94
2023-04-27T01:05:36.378Z,20.96
2023-04-27T01:08:03.695Z,20.95
2023-04-27T01:10:30.457Z,20.92
2023-04-27T01:12:57.946Z,20.90
2023-04-27T01:15:24.723Z,20.89
2023-04-27T01:17:57.903Z,20.86
2023-04-27T01:20:25.028Z,20.85
2023-04-27T01:22:51.922Z,20.83
2023-04-27T01:25:20.426Z,20.82
2023-04-27T01:27:47.253Z,20.79
2023-04-27T01:30:14.242Z,20.78
2023-04-27T01:32:41.051Z,20.76
2023-04-27T01:35:08.151Z,20.76
2023-04-27T01:37:35.435Z,20.74
2023-04-27T01:40:02.208Z,20.73
2023-04-27T01:42:28.960Z,20.70
2023-04-27T01:44:55.729Z,20.71
2023-04-27T01:47:22.508Z,20.69
2023-04-27T01:49:52.493Z,20.67
2023-04-27T01:52:19.427Z,20.66
2023-04-27T01:54:46.200Z,20.64
2023-04-27T01:57:13.072Z,20.62
2023-04-27T01:59:39.841Z,20.59
2023-04-27T02:02:06.706Z,20.60
2023-04-27T02:04:34.345Z,20.56
2023-04-27T02:07:01.313Z,20.54
2023-04-27T02:09:28.181Z,20.52
2023-04-27T02:11:55.106Z,20.52
2023-04-27T02:14:22.010Z,20.53
2023-04-27T02:16:48.939Z,20.49
2023-04-27T02:19:16.202Z,20.48
2023-04-27T02:21:43.303Z,20.48
2023-04-27T02:24:10.292Z,20.47
2023-04-27T02:26:37.214Z,20.47
2023-04-27T02:29:04.407Z,20.47
2023-04-27T02:31:31.896Z,20.45
2023-04-27T02:33:58.866Z,20.42
2023-04-27T02:36:26.168Z,20.40
2023-04-27T02:38:53.069Z,20.39
2023-04-27T02:41:22.207Z,20.36
2023-04-27T02:43:51.859Z,20.35
2023-04-27T02:46:18.841Z,20.36
2023-04-27T02:48:46.022Z,20.34
2023-04-27T02:51:12.973Z,20.33
2023-04-27T02:53:39.881Z,20.31
2023-04-27T02:56:06.989Z,20.28
2023-04-27T02:58:36.139Z,20.30
2023-04-27T03:01:03.238Z,20.26
2023-04-27T03:03:30.476Z,20.25
2023-04-27T03:05:57.651Z,20.25
2023-04-27T03:08:26.809Z,20.24
2023-04-27T03:10:53.712Z,20.25
2023-04-27T03:13:21.206Z,20.24
2023-04-27T03:15:50.706Z,20.23
2023-04-27T03:18:17.642Z,20.22
2023-04-27T03:20:44.523Z,20.21
2023-04-27T03:23:12.453Z,20.19
2023-04-27T03:25:39.454Z,20.19
2023-04-27T03:28:07.046Z,20.17
2023-04-27T03:30:33.998Z,20.15
2023-04-27T03:33:00.941Z,20.14
2023-04-27T03:35:27.919Z,20.16
2023-04-27T03:37:54.948Z,20.13
2023-04-27T03:40:21.960Z,20.11
2023-04-27T03:42:48.889Z,20.09
2023-04-27T03:45:16.954Z,20.10
2023-04-27T03:47:43.823Z,20.08
2023-04-27T03:50:10.959Z,20.05
2023-04-27T03:52:37.919Z,20.12
2023-04-27T03:55:05.521Z,20.09
2023-04-27T03:57:32.403Z,20.09
2023-04-27T03:59:59.296Z,20.07
2023-04-27T04:02:28.192Z,20.05
2023-04-27T04:04:55.313Z,20.05
2023-04-27T04:07:22.276Z,20.03
2023-04-27T04:09:49.171Z,20.02
2023-04-27T04:12:16.037Z,20.03
2023-04-27T04:14:43.313Z,20.02
2023-04-27T04:17:11.355Z,20.02
2023-04-27T04:19:38.284Z,20.02
2023-04-27T04:22:05.351Z,19.99
2023-04-27T04:24:32.349Z,19.97
2023-04-27T04:26:59.469Z,19.95
2023-04-27T04:29:26.416Z,19.95
2023-04-27T04:31:53.350Z,19.92
2023-04-27T04:34:20.643Z,19.92
2023-04-27T04:36:47.756Z,19.90
2023-04-27T04:39:15.485Z,19.89
2023-04-27T04:41:42.666Z,19.89
2023-04-27T04:44:09.569Z,19.86
2023-04-27T04:46:37.771Z,19.88
2023-04-27T04:49:05.139Z,19.87
2023-04-27T04:51:32.168Z,19.84
2023-04-27T04:54:01.628Z,19.83
2023-04-27T04:56:28.801Z,19.83
2023-04-27T04:58:55.722Z,19.80
2023-04-27T05:01:22.708Z,19.76
2023-04-27T05:03:49.900Z,19.76
2023-04-27T05:06:17.134Z,19.78
2023-04-27T05:08:44.000Z,19.75
2023-04-27T05:11:11.761Z,19.81
2023-04-27T05:13:40.679Z,19.91
2023-04-27T05:16:08.160Z,19.95
2023-04-27T05:18:38.528Z,20.01
2023-04-27T05:21:05.869Z,20.05
2023-04-27T05:23:32.828Z,20.12
2023-04-27T05:25:59.725Z,20.16
2023-04-27T05:28:26.715Z,20.21
2023-04-27T05:30:53.657Z,20.25
2023-04-27T05:33:21.157Z,20.32
2023-04-27T05:35:48.074Z,20.37
2023-04-27T05:38:17.835Z,20.41
2023-04-27T05:40:44.842Z,20.48
2023-04-27T05:43:11.990Z,20.53
2023-04-27T05:45:40.491Z,20.59
2023-04-27T05:48:07.587Z,20.66
2023-04-27T05:50:34.613Z,20.72
2023-04-27T05:53:01.644Z,20.79
2023-04-27T05:55:28.895Z,20.83
2023-04-27T05:58:06.931Z,20.89
2023-04-27T06:00:38.894Z,20.96
2023-04-27T06:03:06.453Z,20.99
2023-04-27T06:05:36.980Z,21.05
2023-04-27T06:08:04.205Z,21.09
2023-04-27T06:10:31.204Z,21.12
2023-04-27T06:12:58.401Z,21.15
2023-04-27T06:15:25.485Z,21.18
2023-04-27T06:17:55.025Z,21.21
2023-04-27T06:20:22.430Z,21.24
2023-04-27T06:22:49.588Z,21.27
2023-04-27T06:25:16.651Z,21.29
2023-04-27T06:27:43.824Z,21.32
2023-04-27T06:30:13.913Z,21.33
2023-04-27T06:32:41.206Z,21.36
2023-04-27T06:35:08.702Z,21.38
2023-04-27T06:37:35.702Z,21.39
2023-04-27T06:40:02.883Z,21.40
2023-04-27T06:42:31.219Z,21.41
2023-04-27T06:44:59.059Z,21.42
2023-04-27T06:47:26.149Z,21.44
2023-04-27T06:49:53.390Z,21.44
2023-04-27T06:52:20.667Z,21.44
2023-04-27T06:54:48.017Z,21.44
2023-04-27T06:57:15.049Z,21.43
2023-04-27T06:59:42.234Z,21.45
2023-04-27T07:02:09.619Z,21.45
2023-04-27T07:04:38.699Z,21.44
2023-04-27T07:07:06.223Z,21.43
2023-04-27T07:09:36.795Z,21.41
2023-04-27T07:12:04.320Z,21.41
2023-04-27T07:14:31.955Z,21.41
2023-04-27T07:16:59.228Z,21.41
2023-04-27T07:19:26.760Z,21.39
2023-04-27T07:21:54.031Z,21.39
2023-04-27T07:24:21.701Z,21.37
2023-04-27T07:26:48.797Z,21.39
2023-04-27T07:29:26.301Z,21.37
2023-04-27T07:31:56.272Z,21.35
2023-04-27T07:34:23.882Z,21.35
2023-04-27T07:36:52.679Z,21.35
2023-04-27T07:39:20.177Z,21.34
2023-04-27T07:41:49.091Z,21.35
2023-04-27T07:44:16.697Z,21.34
2023-04-27T07:46:44.511Z,21.31
2023-04-27T07:49:14.897Z,21.33
2023-04-27T07:51:43.709Z,21.30
2023-04-27T07:54:11.009Z,21.29
2023-04-27T07:56:42.688Z,21.29
2023-04-27T07:59:10.138Z,21.27
2023-04-27T08:01:38.890Z,21.22
2023-04-27T08:04:08.685Z,21.16
2023-04-27T08:07:08.924Z,21.18
2023-04-27T08:09:48.131Z,21.20
2023-04-27T08:12:29.151Z,21.20
2023-04-27T08:14:58.369Z,21.21
2023-04-27T08:17:28.874Z,21.25
2023-04-27T08:19:56.239Z,21.28
2023-04-27T08:22:23.512Z,21.33
2023-04-27T08:24:54.547Z,21.35
2023-04-27T08:27:36.971Z,21.40
2023-04-27T08:30:19.496Z,21.44
2023-04-27T08:32:53.513Z,21.48
2023-04-27T08:35:21.588Z,21.51
2023-04-27T08:38:11.274Z,21.55
2023-04-27T08:41:20.352Z,21.60
2023-04-27T08:43:51.994Z,21.65
2023-04-27T08:46:21.562Z,21.74
2023-04-27T08:48:52.841Z,21.65
2023-04-27T08:51:20.852Z,21.55
2023-04-27T08:53:53.064Z,21.42
2023-04-27T08:56:29.657Z,21.31
2023-04-27T08:59:02.387Z,21.32
2023-04-27T09:01:29.637Z,21.26
2023-04-27T09:03:58.832Z,21.23
2023-04-27T09:06:31.285Z,21.16
2023-04-27T09:11:47.725Z,21.45
2023-04-27T09:14:18.634Z,21.56
2023-04-27T09:16:46.519Z,21.66
2023-04-27T09:19:24.639Z,21.73
2023-04-27T09:21:52.447Z,21.82
2023-04-27T09:24:19.467Z,21.89
2023-04-27T09:26:52.379Z,21.93
2023-04-27T09:29:23.253Z,21.97
2023-04-27T09:31:50.427Z,22.02
2023-04-27T09:34:18.119Z,22.06
2023-04-27T09:37:39.233Z,22.10
2023-04-27T09:40:11.763Z,22.19
2023-04-27T09:42:40.099Z,22.24
2023-04-27T09:45:07.778Z,22.30
2023-04-27T09:47:35.220Z,22.33
2023-04-27T09:50:08.551Z,22.34
2023-04-27T09:52:35.924Z,22.39
2023-04-27T09:55:04.300Z,22.39
2023-04-27T09:57:39.350Z,22.42
2023-04-27T10:00:11.982Z,22.45
2023-04-27T10:02:53.203Z,22.46
2023-04-27T10:05:31.875Z,22.45
2023-04-27T10:07:59.572Z,22.46
2023-04-27T10:10:27.449Z,22.48
2023-04-27T10:12:58.573Z,22.48
2023-04-27T10:15:33.317Z,22.49
2023-04-27T10:18:05.310Z,22.47
2023-04-27T10:20:33.583Z,22.44
2023-04-27T10:23:01.678Z,22.44
2023-04-27T10:25:30.462Z,22.41
2023-04-27T10:28:00.045Z,22.39
2023-04-27T10:30:51.405Z,22.39
2023-04-27T10:33:20.215Z,22.33
2023-04-27T10:35:56.353Z,22.33
2023-04-27T10:38:28.424Z,22.31
2023-04-27T10:40:58.122Z,22.29
2023-04-27T10:43:27.237Z,22.30
2023-04-27T10:45:55.252Z,22.27
2023-04-27T10:48:23.090Z,22.27
2023-04-27T10:50:52.522Z,22.30
2023-04-27T10:53:21.042Z,22.25
2023-04-27T10:55:48.526Z,22.24
2023-04-27T10:58:15.790Z,22.24
2023-04-27T11:00:47.141Z,22.21
2023-04-27T11:03:21.634Z,22.23
2023-04-27T11:05:50.382Z,22.27
2023-04-27T11:08:18.915Z,22.34
2023-04-27T11:11:13.863Z,22.42
2023-04-27T11:13:44.551Z,22.45
2023-04-27T11:16:53.760Z,22.50
2023-04-27T11:19:26.493Z,22.55
2023-04-27T11:21:53.872Z,22.58
2023-04-27T11:24:44.830Z,22.60
2023-04-27T11:27:12.621Z,22.62
2023-04-27T11:29:43.224Z,22.71
2023-04-27T11:32:19.793Z,22.73
2023-04-27T11:34:58.369Z,22.77
2023-04-27T11:40:20.738Z,22.79
2023-04-27T11:43:23.271Z,22.76
2023-04-27T11:45:50.970Z,22.79
2023-04-27T11:48:24.972Z,22.73
2023-04-27T11:50:58.637Z,22.73
2023-04-27T11:53:35.691Z,22.73
2023-04-27T11:56:07.707Z,22.69
2023-04-27T11:58:39.921Z,22.68
2023-04-27T12:01:07.961Z,22.69
2023-04-27T12:03:35.880Z,22.66
2023-04-27T12:06:21.647Z,22.65
2023-04-27T12:08:51.122Z,22.65
2023-04-27T12:11:46.971Z,22.62
2023-04-27T12:14:10.561Z,22.62
2023-04-27T12:16:38.235Z,22.63
2023-04-27T12:19:05.708Z,22.60
2023-04-27T12:21:35.527Z,22.56
2023-04-27T12:24:03.206Z,22.49
2023-04-27T12:26:31.201Z,22.49
2023-04-27T12:28:58.972Z,22.45
2023-04-27T12:31:27.842Z,22.44
2023-04-27T12:33:55.458Z,22.41
2023-04-27T12:36:28.186Z,22.41
2023-04-27T12:38:59.447Z,22.38
2023-04-27T12:41:27.128Z,22.36
2023-04-27T12:43:54.827Z,22.34
2023-04-27T12:49:11.366Z,22.39
2023-04-27T12:51:39.209Z,22.43
2023-04-27T12:54:07.931Z,22.44
2023-04-27T12:57:07.307Z,22.45
2023-04-27T12:59:35.046Z,22.43
2023-04-27T13:02:07.767Z,22.44
2023-04-27T13:04:35.865Z,22.45
2023-04-27T13:07:04.248Z,22.44
2023-04-27T13:09:31.697Z,22.46
2023-04-27T13:12:01.403Z,22.44
2023-04-27T13:14:29.621Z,22.43
2023-04-27T13:16:57.458Z,22.44
2023-04-27T13:19:24.799Z,22.42
2023-04-27T13:21:54.911Z,22.41
2023-04-27T13:24:23.303Z,22.40
2023-04-27T13:26:50.912Z,22.39
2023-04-27T13:29:19.444Z,22.38
2023-04-27T13:31:47.328Z,22.34
2023-04-27T13:34:15.852Z,22.34
2023-04-27T13:36:43.600Z,22.32
2023-04-27T13:39:10.979Z,22.29
2023-04-27T13:41:38.682Z,22.30
2023-04-27T13:44:05.990Z,22.29
2023-04-27T13:46:37.115Z,22.27
2023-04-27T13:49:04.578Z,22.26
2023-04-27T13:51:34.055Z,22.24
2023-04-27T13:54:03.391Z,22.23
2023-04-27T13:56:36.799Z,22.20
2023-04-27T13:59:04.732Z,22.18
2023-04-27T14:01:32.149Z,22.16
2023-04-27T14:04:00.503Z,22.15
2023-04-27T14:06:31.288Z,22.14
2023-04-27T14:08:58.842Z,22.12
2023-04-27T14:11:29.840Z,22.08
2023-04-27T14:13:57.119Z,22.06
2023-04-27T14:16:25.885Z,22.04
2023-04-27T14:18:57.230Z,22.04
2023-04-27T14:21:25.184Z,22.00
2023-04-27T14:23:52.512Z,21.98
2023-04-27T14:26:24.921Z,21.95
2023-04-27T14:28:52.270Z,21.93
2023-04-27T14:31:20.149Z,21.91
2023-04-27T14:33:48.454Z,21.89
2023-04-27T14:36:18.977Z,21.87
2023-04-27T14:38:46.701Z,21.86
2023-04-27T14:41:14.252Z,21.83
2023-04-27T14:43:42.553Z,21.82
2023-04-27T14:46:21.398Z,21.79
2023-04-27T14:48:49.532Z,21.77
2023-04-27T14:51:17.297Z,21.74
2023-04-27T14:53:45.422Z,21.72
2023-04-27T14:56:16.448Z,21.69
2023-04-27T14:58:43.865Z,21.68
2023-04-27T15:01:14.624Z,21.65
2023-04-27T15:03:42.395Z,21.61
2023-04-27T15:06:16.383Z,21.61
2023-04-27T15:08:43.945Z,21.58
2023-04-27T15:11:11.698Z,21.58
2023-04-27T15:13:39.063Z,21.57
2023-04-27T15:16:32.225Z,21.55
2023-04-27T15:19:01.572Z,21.53
2023-04-27T15:21:29.220Z,21.52
2023-04-27T15:23:56.977Z,21.51
2023-04-27T15:26:33.702Z,21.49
2023-04-27T15:29:01.808Z,21.47
2023-04-27T15:31:31.676Z,21.46
2023-04-27T15:33:59.422Z,21.43
2023-04-27T15:36:29.384Z,21.44
2023-04-27T15:38:57.219Z,21.41
2023-04-27T15:41:24.571Z,21.40
2023-04-27T15:43:52.435Z,21.38
2023-04-27T15:46:20.212Z,21.36
2023-04-27T15:48:47.635Z,21.33
2023-04-27T15:51:17.160Z,21.31
2023-04-27T15:53:44.908Z,21.28
2023-04-27T15:58:59.054Z,21.26
2023-04-27T16:01:26.997Z,21.23
2023-04-27T16:03:54.571Z,21.22
2023-04-27T16:06:42.087Z,21.20
2023-04-27T16:09:10.730Z,21.19
2023-04-27T16:11:39.714Z,21.18
2023-04-27T16:14:07.304Z,21.15
2023-04-27T16:16:35.470Z,21.14
2023-04-27T16:19:02.873Z,21.11
2023-04-27T16:21:30.941Z,21.10
2023-04-27T16:23:58.354Z,21.08
2023-04-27T16:26:27.820Z,21.06
2023-04-27T16:28:58.530Z,21.05
2023-04-27T16:31:27.872Z,21.02
2023-04-27T16:33:55.645Z,21.02
2023-04-27T16:36:36.749Z,21.00
2023-04-27T16:39:05.805Z,20.97
2023-04-27T16:41:34.019Z,20.97
2023-04-27T16:44:01.613Z,20.96
2023-04-27T16:46:37.917Z,20.95
2023-04-27T16:49:24.710Z,20.94
2023-04-27T16:52:07.639Z,20.91
2023-04-27T16:55:02.756Z,20.90
2023-04-27T16:57:46.957Z,20.89
2023-04-27T17:00:29.338Z,20.86
2023-04-27T17:08:50.747Z,20.78
2023-04-27T17:11:20.337Z,20.78
2023-04-27T17:13:50.690Z,20.78
2023-04-27T17:16:23.261Z,20.76
2023-04-27T17:18:53.435Z,20.74
2023-04-27T17:21:23.611Z,20.73
2023-04-27T17:23:52.987Z,20.71
2023-04-27T17:26:23.678Z,20.69
2023-04-27T17:28:52.433Z,20.69
2023-04-27T17:31:20.964Z,20.67
2023-04-27T17:33:49.144Z,20.65
2023-04-27T17:36:18.304Z,20.63
2023-04-27T17:38:47.404Z,20.63
2023-04-27T17:41:15.319Z,20.61
2023-04-27T17:43:43.183Z,20.60
2023-04-27T17:46:15.421Z,20.59
2023-04-27T17:48:43.858Z,20.58
2023-04-27T17:51:12.455Z,20.56
2023-04-27T17:53:39.865Z,20.54
2023-04-27T17:56:09.440Z,20.54
2023-04-27T17:58:36.996Z,20.51
2023-04-27T18:01:08.468Z,20.51
2023-04-27T18:03:36.945Z,20.51
2023-04-27T18:06:04.798Z,20.50
2023-04-27T18:08:32.208Z,20.47
2023-04-27T18:10:59.576Z,20.48
2023-04-27T18:13:27.763Z,20.47
2023-04-27T18:15:55.178Z,20.45
2023-04-27T18:18:25.099Z,20.44
2023-04-27T18:20:52.661Z,20.41
2023-04-27T18:23:20.301Z,20.40
2023-04-27T18:25:47.849Z,20.40
2023-04-27T18:28:15.054Z,20.38
2023-04-27T18:30:42.569Z,20.37
2023-04-27T18:33:09.740Z,20.37
2023-04-27T18:35:37.508Z,20.37
2023-04-27T18:38:04.799Z,20.37
2023-04-27T18:40:32.256Z,20.35
2023-04-27T18:42:59.830Z,20.33
2023-04-27T18:45:27.524Z,20.33
2023-04-27T18:47:55.033Z,20.30
2023-04-27T18:50:22.188Z,20.31
2023-04-27T18:52:49.358Z,20.31
2023-04-27T18:55:18.235Z,20.29
2023-04-27T18:57:46.006Z,20.27
2023-04-27T19:00:14.249Z,20.26
2023-04-27T19:02:41.531Z,20.25
2023-04-27T19:05:12.854Z,20.22
2023-04-27T19:07:41.150Z,20.23
2023-04-27T19:10:09.213Z,20.22
2023-04-27T19:12:36.459Z,20.21
2023-04-27T19:15:04.084Z,20.19
2023-04-27T19:17:31.777Z,20.18
2023-04-27T19:19:59.165Z,20.18
2023-04-27T19:22:27.646Z,20.15
2023-04-27T19:24:54.838Z,20.15
2023-04-27T19:27:22.460Z,20.14
2023-04-27T19:29:51.674Z,20.13
2023-04-27T19:32:20.076Z,20.12
2023-04-27T19:34:50.524Z,20.11
2023-04-27T19:37:17.714Z,20.11
2023-04-27T19:39:44.928Z,20.10
2023-04-27T19:42:15.765Z,20.10
2023-04-27T19:44:42.976Z,20.08
2023-04-27T19:47:11.476Z,20.04
2023-04-27T19:49:38.989Z,20.04
2023-04-27T19:52:06.923Z,20.04
2023-04-27T19:54:34.170Z,20.03
2023-04-27T19:57:01.730Z,20.02
2023-04-27T19:59:30.961Z,20.01
2023-04-27T20:01:58.087Z,19.98
2023-04-27T20:04:25.572Z,19.97
2023-04-27T20:06:53.772Z,19.95
2023-04-27T20:09:23.329Z,19.93
2023-04-27T20:11:50.449Z,19.94
2023-04-27T20:14:18.033Z,19.94
2023-04-27T20:16:45.357Z,19.93
2023-04-27T20:19:12.818Z,19.91
2023-04-27T20:21:39.826Z,19.92
2023-04-27T20:24:07.709Z,19.91
2023-04-27T20:26:34.864Z,19.89
2023-04-27T20:29:01.985Z,19.89
2023-04-27T20:31:29.132Z,19.88
2023-04-27T20:33:56.318Z,19.87
2023-04-27T20:36:26.693Z,19.86
2023-04-27T20:38:54.019Z,19.85
2023-04-27T20:41:22.905Z,19.85
2023-04-27T20:43:52.955Z,19.85
2023-04-27T20:46:20.657Z,19.85
2023-04-27T20:48:47.857Z,19.84
2023-04-27T20:51:15.048Z,19.84
2023-04-27T20:53:42.274Z,19.84
2023-04-27T20:56:10.239Z,19.82
2023-04-27T20:58:37.315Z,19.82
2023-04-27T21:01:04.439Z,19.81
2023-04-27T21:03:32.107Z,19.80
2023-04-27T21:05:59.621Z,19.81
2023-04-27T21:08:26.760Z,19.80
2023-04-27T21:10:53.826Z,19.81
2023-04-27T21:13:21.241Z,19.81
2023-04-27T21:15:48.497Z,19.83
2023-04-27T21:18:29.192Z,19.81
2023-04-27T21:20:57.295Z,19.81
2023-04-27T21:23:24.726Z,19.80
2023-04-27T21:25:51.687Z,19.81
2023-04-27T21:28:18.770Z,19.77
2023-04-27T21:30:45.956Z,19.76
2023-04-27T21:33:13.148Z,19.76
2023-04-27T21:35:40.355Z,19.75
2023-04-27T21:38:07.389Z,19.75
2023-04-27T21:40:34.482Z,19.74
2023-04-27T21:43:01.732Z,19.73
2023-04-27T21:45:28.862Z,19.76
2023-04-27T21:47:56.012Z,19.83
2023-04-27T21:50:22.916Z,19.92
2023-04-27T21:52:49.929Z,19.82
2023-04-27T21:55:16.944Z,19.88
2023-04-27T21:57:46.978Z,20.00
2023-04-27T22:00:14.645Z,20.06
2023-04-27T22:02:43.090Z,20.12
2023-04-27T22:05:12.881Z,20.18
2023-04-27T22:07:40.237Z,20.23
2023-04-27T22:10:08.156Z,20.29
2023-04-27T22:12:35.980Z,20.35
2023-04-27T22:15:04.271Z,20.40
2023-04-27T22:17:31.420Z,20.44
2023-04-27T22:19:59.032Z,20.50
2023-04-27T22:22:26.166Z,20.57
2023-04-27T22:24:53.561Z,20.64
2023-04-27T22:27:21.128Z,20.69
2023-04-27T22:29:48.107Z,20.75
2023-04-27T22:32:17.502Z,20.83
2023-04-27T22:34:45.235Z,20.90
2023-04-27T22:37:12.205Z,20.97
2023-04-27T22:39:39.371Z,21.04
2023-04-27T22:42:06.536Z,21.10
2023-04-27T22:44:33.541Z,21.16
2023-04-27T22:47:02.729Z,21.22
2023-04-27T22:49:29.835Z,21.30
2023-04-27T22:51:58.020Z,21.37
2023-04-27T22:54:25.366Z,21.44
2023-04-27T22:56:52.310Z,21.48
2023-04-27T22:59:23.542Z,21.51
2023-04-27T23:01:50.622Z,21.56
2023-04-27T23:04:19.591Z,21.59
2023-04-27T23:06:46.948Z,21.64
2023-04-27T23:09:14.623Z,21.67
2023-04-27T23:11:41.832Z,21.71
2023-04-27T23:14:08.978Z,21.74
2023-04-27T23:16:36.175Z,21.76
2023-04-27T23:19:03.298Z,21.78
2023-04-27T23:21:30.383Z,21.81
2023-04-27T23:23:57.342Z,21.83
2023-04-27T23:26:24.310Z,21.86
2023-04-27T23:28:51.244Z,21.87
2023-04-27T23:31:18.520Z,21.88
2023-04-27T23:33:45.503Z,21.90
2023-04-27T23:36:12.519Z,21.92
2023-04-27T23:38:39.511Z,21.93
2023-04-27T23:41:06.458Z,21.92
2023-04-27T23:43:34.452Z,21.94
2023-04-27T23:46:01.432Z,21.92
2023-04-27T23:48:28.384Z,21.94
2023-04-27T23:50:59.248Z,21.94
2023-04-27T23:53:26.896Z,21.94
2023-04-27T23:55:53.825Z,21.95
2023-04-27T23:58:20.851Z,21.93
